Cedarville, OH

5:17 AM EST on December 19, 2014 (GMT -0500)
Byron | Change Station
CLOSE
Current Station
Personal Weather Station
Location: Fairborn, OH
Elevation: 906 ft
Nearby Weather Stations

Elev 906 ft 39.78 °N, 83.99 °W | Updated 2 seconds ago

Overcast
Overcast
26.8 °F
Feels Like 27 °F
N
0.0
Wind Variable Wind from West
Gusts 0.0 mph

Today
High -- | Low -- °F
--% Chance of Precip.
Yesterday
High -- | Low -- °F
Precip. -- in
7:51 AM 5:13 PM
Waning Crescent, 9% visible
Pressure 30.27 in
Visibility 6.0 miles
Clouds Overcast 1400 ft
Windchill 27 °F
Dew Point 19 °F
Humidity 72%
Rainfall 0.00 in
Snow Depth Not available.
UV 0 out of 12
Pollen .10 out of 12
Air Quality Not available.
Flu Activity Not available.
METAR KSGH 190956Z AUTO VRB06KT 6SM HZ OVC014 M03/M06 A3023 RMK AO2 T10271055 SLP250

More Conditions Fewer Conditions

Pressure 30.27 in
Visibility 6.0 miles
Clouds Overcast 1400 ft
Windchill 27 °F
Dew Point 19 °F
Humidity 72%
Rainfall 0.00 in
Snow Depth Not available.
UV 0 out of 12
Pollen .10 out of 12
Air Quality Not available.
Flu Activity Not available.
METAR KSGH 190956Z AUTO VRB06KT 6SM HZ OVC014 M03/M06 A3023 RMK AO2 T10271055 SLP250

More Conditions Fewer Conditions

10-Day Weather Forecast

Almanac

Astronomy

Dec. 19, 2014 Rise Set
Actual Time
Civil Twilight
Nautical Twilight
Astronomical Twilight
Moon
Length of Visible Light
Length of Day
Tomorrow will be .
, % of the Moon is Illuminated

Today's Extremes

State Highs State Lows

Community

WunderPhotos

Upload Photos

1,778,966 photos uploaded!

WunderBlogs® & News

Nearby

Air Quality

  Air Quality AQ Index Pollutant
Not available.

Snow Depth

Station Depth Elevation

Earthquake Activity

City Distance Mag. Time & Date
Minimum magnitude displayed is 2.5.

Coastal Water Temperatures

Place Temperature

Nearby Weather Stations